Terminal Aerodrome Forecast
Issued by NWS

Home | Current Version | Previous Version | Text Only | Print | Product List | Glossary On
Versions: 1 2 3 4 5 6 7 8 9 10 11 12 13 14 15 16 17 18 19 20 21 22 23 24 25 26 27 28 29 30 31 32 33 34 35 36 37 38 39 40 41 42 43 44 45 46
000
FTUS46 KEKA 170431 AAD
TAFACV
TAF AMD
KACV 170431Z 1705/1724 VRB03KT 4SM BR SCT003
      TEMPO 1705/1709 1SM BR OVC003
     FM170900 12008KT P6SM SCT003 OVC100
     FM172100 16008KT P6SM VCSH BKN040 OVC070=

USA.gov is the U.S. government's official web portal to all federal, state and local government web resources and services.